createdAt,value
2023-04-26T00:00:24.817Z,24.13
2023-04-26T00:01:24.826Z,24.11
2023-04-26T00:02:25.016Z,24.13
2023-04-26T00:03:25.003Z,24.14
2023-04-26T00:04:25.139Z,24.13
2023-04-26T00:05:24.882Z,24.14
2023-04-26T00:06:24.941Z,24.14
2023-04-26T00:07:24.942Z,24.11
2023-04-26T00:08:24.901Z,24.14
2023-04-26T00:09:24.903Z,24.14
2023-04-26T00:10:24.922Z,24.11
2023-04-26T00:11:24.943Z,24.14
2023-04-26T00:12:24.931Z,24.13
2023-04-26T00:13:24.952Z,24.10
2023-04-26T00:14:24.967Z,24.14
2023-04-26T00:15:24.984Z,24.13
2023-04-26T00:16:25.047Z,24.11
2023-04-26T00:17:25.019Z,24.11
2023-04-26T00:18:25.041Z,24.13
2023-04-26T00:19:25.011Z,24.10
2023-04-26T00:20:25.061Z,24.13
2023-04-26T00:21:25.034Z,24.11
2023-04-26T00:22:25.063Z,24.10
2023-04-26T00:23:25.088Z,24.11
2023-04-26T00:24:25.086Z,24.11
2023-04-26T00:25:25.118Z,24.11
2023-04-26T00:26:25.132Z,24.08
2023-04-26T00:27:25.129Z,24.08
2023-04-26T00:28:25.165Z,24.10
2023-04-26T00:29:25.188Z,24.11
2023-04-26T00:30:25.205Z,24.10
2023-04-26T00:31:25.257Z,24.13
2023-04-26T00:32:25.241Z,24.08
2023-04-26T00:33:25.239Z,24.10
2023-04-26T00:34:25.230Z,24.10
2023-04-26T00:35:25.252Z,24.08
2023-04-26T00:36:25.268Z,24.10
2023-04-26T00:37:25.284Z,24.07
2023-04-26T00:38:25.307Z,24.07
2023-04-26T00:39:25.318Z,24.07
2023-04-26T00:40:25.345Z,24.10
2023-04-26T00:41:25.514Z,24.07
2023-04-26T00:42:25.383Z,24.08
2023-04-26T00:43:25.406Z,24.07
2023-04-26T00:44:25.399Z,24.07
2023-04-26T00:45:25.428Z,24.07
2023-04-26T00:46:25.590Z,24.05
2023-04-26T00:47:25.520Z,24.05
2023-04-26T00:48:25.477Z,24.04
2023-04-26T00:49:25.504Z,24.04
2023-04-26T00:50:25.502Z,24.07
2023-04-26T00:51:25.515Z,24.04
2023-04-26T00:52:25.577Z,24.05
2023-04-26T00:53:25.578Z,24.05
2023-04-26T00:54:25.625Z,24.04
2023-04-26T00:55:25.677Z,24.04
2023-04-26T00:56:25.659Z,24.04
2023-04-26T00:57:25.627Z,24.03
2023-04-26T00:58:25.638Z,24.05
2023-04-26T00:59:25.672Z,24.04
2023-04-26T01:00:25.671Z,24.05
2023-04-26T01:01:25.691Z,24.05
2023-04-26T01:02:25.849Z,24.04
2023-04-26T01:03:25.832Z,24.01
2023-04-26T01:04:25.900Z,24.03
2023-04-26T01:05:25.763Z,24.04
2023-04-26T01:06:25.769Z,24.04
2023-04-26T01:07:25.798Z,24.03
2023-04-26T01:08:25.810Z,24.04
2023-04-26T01:09:25.827Z,24.04
2023-04-26T01:10:25.845Z,24.01
2023-04-26T01:11:25.881Z,24.03
2023-04-26T01:12:25.895Z,24.03
2023-04-26T01:13:25.953Z,24.03
2023-04-26T01:14:25.954Z,24.00
2023-04-26T01:15:25.944Z,24.01
2023-04-26T01:16:26.025Z,24.01
2023-04-26T01:17:26.038Z,24.01
2023-04-26T01:18:26.010Z,24.03
2023-04-26T01:19:26.039Z,24.04
2023-04-26T01:20:26.067Z,24.03
2023-04-26T01:21:26.070Z,24.03
2023-04-26T01:22:26.090Z,24.03
2023-04-26T01:23:26.105Z,24.01
2023-04-26T01:24:26.176Z,24.01
2023-04-26T01:25:26.168Z,24.00
2023-04-26T01:26:26.205Z,24.01
2023-04-26T01:27:26.216Z,23.99
2023-04-26T01:28:26.235Z,23.97
2023-04-26T01:29:26.267Z,23.99
2023-04-26T01:30:26.283Z,24.00
2023-04-26T01:31:26.425Z,23.97
2023-04-26T01:32:26.355Z,23.97
2023-04-26T01:33:26.322Z,23.99
2023-04-26T01:34:26.348Z,23.99
2023-04-26T01:35:26.384Z,23.99
2023-04-26T01:36:26.383Z,24.00
2023-04-26T01:37:26.410Z,23.97
2023-04-26T01:38:26.425Z,23.99
2023-04-26T01:39:26.425Z,23.97
2023-04-26T01:40:26.455Z,23.99
2023-04-26T01:41:26.478Z,23.97
2023-04-26T01:42:26.502Z,23.97
2023-04-26T01:43:26.516Z,23.97
2023-04-26T01:44:26.538Z,23.97
2023-04-26T01:45:26.552Z,23.97
2023-04-26T01:46:26.662Z,23.97
2023-04-26T01:47:26.675Z,23.99
2023-04-26T01:48:26.626Z,24.00
2023-04-26T01:49:26.619Z,23.97
2023-04-26T01:50:26.656Z,23.97
2023-04-26T01:51:26.667Z,23.97
2023-04-26T01:52:26.686Z,23.97
2023-04-26T01:53:26.692Z,23.97
2023-04-26T01:54:26.727Z,23.96
2023-04-26T01:55:26.731Z,23.96
2023-04-26T01:56:26.752Z,23.96
2023-04-26T01:57:26.780Z,23.96
2023-04-26T01:58:26.794Z,23.93
2023-04-26T01:59:26.827Z,23.96
2023-04-26T02:00:26.846Z,23.94
2023-04-26T02:01:26.886Z,23.96
2023-04-26T02:02:26.865Z,23.93
2023-04-26T02:03:26.922Z,23.94
2023-04-26T02:04:27.186Z,23.96
2023-04-26T02:05:26.955Z,23.94
2023-04-26T02:06:26.947Z,23.93
2023-04-26T02:07:26.961Z,23.94
2023-04-26T02:08:26.993Z,23.97
2023-04-26T02:09:27.063Z,23.94
2023-04-26T02:10:27.067Z,23.94
2023-04-26T02:11:27.116Z,23.94
2023-04-26T02:12:27.114Z,23.94
2023-04-26T02:13:27.137Z,23.93
2023-04-26T02:14:27.146Z,23.93
2023-04-26T02:15:27.171Z,23.91
2023-04-26T02:16:27.254Z,23.93
2023-04-26T02:17:27.221Z,23.90
2023-04-26T02:18:27.221Z,23.93
2023-04-26T02:19:27.255Z,23.93
2023-04-26T02:20:27.273Z,23.94
2023-04-26T02:21:27.321Z,23.91
2023-04-26T02:22:27.312Z,23.93
2023-04-26T02:23:27.363Z,23.91
2023-04-26T02:24:27.391Z,23.90
2023-04-26T02:25:27.423Z,23.91
2023-04-26T02:26:27.569Z,23.90
2023-04-26T02:27:27.466Z,23.90
2023-04-26T02:28:27.474Z,23.91
2023-04-26T02:29:43.099Z,23.90
2023-04-26T02:30:28.522Z,23.88
2023-04-26T02:31:27.535Z,23.90
2023-04-26T02:32:27.510Z,23.90
2023-04-26T02:33:27.475Z,23.90
2023-04-26T02:34:27.479Z,23.91
2023-04-26T02:35:27.472Z,23.90
2023-04-26T02:36:27.497Z,23.90
2023-04-26T02:37:27.478Z,23.91
2023-04-26T02:38:27.448Z,23.88
2023-04-26T02:39:27.447Z,23.90
2023-04-26T02:40:27.459Z,23.88
2023-04-26T02:41:27.444Z,23.90
2023-04-26T02:42:27.438Z,23.91
2023-04-26T02:43:27.437Z,23.88
2023-04-26T02:44:27.458Z,23.88
2023-04-26T02:45:27.434Z,23.88
2023-04-26T02:46:27.452Z,23.91
2023-04-26T02:47:27.451Z,23.90
2023-04-26T02:48:27.420Z,23.90
2023-04-26T02:49:27.451Z,23.87
2023-04-26T02:50:27.634Z,23.88
2023-04-26T02:51:27.522Z,23.90
2023-04-26T02:52:27.537Z,23.88
2023-04-26T02:53:27.544Z,23.88
2023-04-26T02:54:27.570Z,23.88
2023-04-26T02:55:27.596Z,23.88
2023-04-26T02:56:27.608Z,23.85
2023-04-26T02:57:27.635Z,23.90
2023-04-26T02:58:27.667Z,23.88
2023-04-26T02:59:27.687Z,23.87
2023-04-26T03:00:27.723Z,23.90
2023-04-26T03:01:27.771Z,23.88
2023-04-26T03:02:27.855Z,23.87
2023-04-26T03:03:28.121Z,23.87
2023-04-26T03:04:27.854Z,23.85
2023-04-26T03:05:27.885Z,23.87
2023-04-26T03:06:27.924Z,23.87
2023-04-26T03:07:27.962Z,23.85
2023-04-26T03:08:27.968Z,23.88
2023-04-26T03:09:28.013Z,23.87
2023-04-26T03:10:28.019Z,23.85
2023-04-26T03:11:28.121Z,23.87
2023-04-26T03:12:28.078Z,23.84
2023-04-26T03:13:28.122Z,23.85
2023-04-26T03:14:28.162Z,23.85
2023-04-26T03:15:28.210Z,23.87
2023-04-26T03:16:29.181Z,23.84
2023-04-26T03:17:28.259Z,23.85
2023-04-26T03:18:28.284Z,23.85
2023-04-26T03:19:28.314Z,23.84
2023-04-26T03:20:28.338Z,23.85
2023-04-26T03:21:28.377Z,23.85
2023-04-26T03:22:28.396Z,23.84
2023-04-26T03:23:28.425Z,23.84
2023-04-26T03:24:28.459Z,23.81
2023-04-26T03:25:28.468Z,23.81
2023-04-26T03:26:28.512Z,23.84
2023-04-26T03:27:28.569Z,23.84
2023-04-26T03:28:28.571Z,23.85
2023-04-26T03:29:28.596Z,23.84
2023-04-26T03:30:28.642Z,23.83
2023-04-26T03:31:28.702Z,23.83
2023-04-26T03:32:28.802Z,23.84
2023-04-26T03:33:28.716Z,23.83
2023-04-26T03:34:28.782Z,23.83
2023-04-26T03:35:28.792Z,23.83
2023-04-26T03:36:28.803Z,23.81
2023-04-26T03:37:28.828Z,23.81
2023-04-26T03:38:28.881Z,23.81
2023-04-26T03:39:28.940Z,23.83
2023-04-26T03:40:28.939Z,23.81
2023-04-26T03:41:28.974Z,23.81
2023-04-26T03:42:28.992Z,23.80
2023-04-26T03:43:29.053Z,23.80
2023-04-26T03:44:31.050Z,23.80
2023-04-26T03:45:29.087Z,23.79
2023-04-26T03:46:29.376Z,23.84
2023-04-26T03:47:29.181Z,23.80
2023-04-26T03:48:29.232Z,23.80
2023-04-26T03:49:29.221Z,23.79
2023-04-26T03:50:29.274Z,23.81
2023-04-26T03:51:29.295Z,23.80
2023-04-26T03:52:29.329Z,23.79
2023-04-26T03:53:29.419Z,23.79
2023-04-26T03:54:29.407Z,23.80
2023-04-26T03:55:29.424Z,23.80
2023-04-26T03:56:29.477Z,23.77
2023-04-26T03:57:29.505Z,23.79
2023-04-26T03:58:29.514Z,23.79
2023-04-26T03:59:29.618Z,23.79
2023-04-26T04:00:29.601Z,23.77
2023-04-26T04:01:29.642Z,23.79
2023-04-26T04:02:29.773Z,23.80
2023-04-26T04:03:29.805Z,23.79
2023-04-26T04:04:29.894Z,23.79
2023-04-26T04:05:29.852Z,23.79
2023-04-26T04:06:29.817Z,23.80
2023-04-26T04:07:29.864Z,23.77
2023-04-26T04:08:29.890Z,23.80
2023-04-26T04:09:29.958Z,23.79
2023-04-26T04:10:29.979Z,23.79
2023-04-26T04:11:30.021Z,23.77
2023-04-26T04:12:30.063Z,23.77
2023-04-26T04:13:30.091Z,23.79
2023-04-26T04:14:30.125Z,23.79
2023-04-26T04:15:30.242Z,23.80
2023-04-26T04:16:30.259Z,23.77
2023-04-26T04:17:30.233Z,23.76
2023-04-26T04:18:30.278Z,23.77
2023-04-26T04:19:30.312Z,23.76
2023-04-26T04:20:30.381Z,23.77
2023-04-26T04:21:30.398Z,23.77
2023-04-26T04:22:30.437Z,23.76
2023-04-26T04:23:30.472Z,23.76
2023-04-26T04:24:31.469Z,23.77
2023-04-26T04:25:30.568Z,23.77
2023-04-26T04:26:30.620Z,23.79
2023-04-26T04:27:30.671Z,23.76
2023-04-26T04:28:30.689Z,23.76
2023-04-26T04:29:30.755Z,23.76
2023-04-26T04:30:30.772Z,23.76
2023-04-26T04:31:30.840Z,23.77
2023-04-26T04:32:30.864Z,23.77
2023-04-26T04:33:30.886Z,23.77
2023-04-26T04:34:31.177Z,23.77
2023-04-26T04:35:30.967Z,23.77
2023-04-26T04:36:31.061Z,23.77
2023-04-26T04:37:31.068Z,23.77
2023-04-26T04:38:31.076Z,23.77
2023-04-26T04:39:31.156Z,23.74
2023-04-26T04:40:31.176Z,23.77
2023-04-26T04:41:31.199Z,23.76
2023-04-26T04:42:31.260Z,23.77
2023-04-26T04:43:31.278Z,23.79
2023-04-26T04:44:31.332Z,23.76
2023-04-26T04:45:31.387Z,23.77
2023-04-26T04:46:31.482Z,23.79
2023-04-26T04:47:31.486Z,23.79
2023-04-26T04:48:31.510Z,23.77
2023-04-26T04:49:31.513Z,23.79
2023-04-26T04:50:31.588Z,23.77
2023-04-26T04:51:31.602Z,23.79
2023-04-26T04:52:31.627Z,23.79
2023-04-26T04:53:31.695Z,23.79
2023-04-26T04:54:31.732Z,23.79
2023-04-26T04:55:31.746Z,23.80
2023-04-26T04:56:31.808Z,23.80
2023-04-26T04:57:31.828Z,23.80
2023-04-26T04:58:31.849Z,23.80
2023-04-26T04:59:31.928Z,23.80
2023-04-26T05:00:31.931Z,23.79
2023-04-26T05:01:32.031Z,23.80
2023-04-26T05:02:32.078Z,23.80
2023-04-26T05:03:32.227Z,23.81
2023-04-26T05:04:32.374Z,23.80
2023-04-26T05:05:32.140Z,23.81
2023-04-26T05:06:32.172Z,23.79
2023-04-26T05:07:32.218Z,23.80
2023-04-26T05:08:32.249Z,23.79
2023-04-26T05:09:32.385Z,23.81
2023-04-26T05:10:32.327Z,23.80
2023-04-26T05:11:32.373Z,23.80
2023-04-26T05:12:32.410Z,23.83
2023-04-26T05:13:32.437Z,23.81
2023-04-26T05:14:32.471Z,23.83
2023-04-26T05:15:32.512Z,23.84
2023-04-26T05:16:32.604Z,23.83
2023-04-26T05:17:32.643Z,23.84
2023-04-26T05:18:32.635Z,23.83
2023-04-26T05:19:32.650Z,23.84
2023-04-26T05:20:32.717Z,23.81
2023-04-26T05:21:32.729Z,23.81
2023-04-26T05:22:32.761Z,23.83
2023-04-26T05:23:32.803Z,23.84
2023-04-26T05:24:32.835Z,23.84
2023-04-26T05:25:32.880Z,23.85
2023-04-26T05:26:32.948Z,23.84
2023-04-26T05:27:32.978Z,23.87
2023-04-26T05:28:32.989Z,23.90
2023-04-26T05:29:33.022Z,23.93
2023-04-26T05:30:33.053Z,23.97
2023-04-26T05:31:33.174Z,24.00
2023-04-26T05:32:33.162Z,24.04
2023-04-26T05:33:33.134Z,24.10
2023-04-26T05:34:33.151Z,24.13
2023-04-26T05:35:33.703Z,24.14
2023-04-26T05:36:33.188Z,24.24
2023-04-26T05:37:33.330Z,24.31
2023-04-26T05:38:33.231Z,24.38
2023-04-26T05:39:33.219Z,24.47
2023-04-26T05:40:33.240Z,24.51
2023-04-26T05:41:33.209Z,24.55
2023-04-26T05:42:33.241Z,24.61
2023-04-26T05:43:33.277Z,24.61
2023-04-26T05:44:33.311Z,24.65
2023-04-26T05:45:34.239Z,24.75
2023-04-26T05:46:33.306Z,24.79
2023-04-26T05:47:33.405Z,24.83
2023-04-26T05:48:33.429Z,24.86
2023-04-26T05:49:33.471Z,24.92
2023-04-26T05:50:33.695Z,24.96
2023-04-26T05:51:33.656Z,24.93
2023-04-26T05:52:33.668Z,24.98
2023-04-26T05:53:33.742Z,25.05
2023-04-26T05:54:33.762Z,25.03
2023-04-26T05:55:33.828Z,25.09
2023-04-26T05:56:33.860Z,25.13
2023-04-26T05:57:33.936Z,25.16
2023-04-26T05:58:33.972Z,25.16
2023-04-26T05:59:33.961Z,25.18
2023-04-26T06:00:34.076Z,25.20
2023-04-26T06:01:34.050Z,25.19
2023-04-26T06:02:34.212Z,25.18
2023-04-26T06:03:34.288Z,25.23
2023-04-26T06:04:34.301Z,25.29
2023-04-26T06:05:34.266Z,25.25
2023-04-26T06:06:34.248Z,25.28
2023-04-26T06:07:34.231Z,25.32
2023-04-26T06:08:34.174Z,25.29
2023-04-26T06:09:34.237Z,25.30
2023-04-26T06:10:34.279Z,25.30
2023-04-26T06:11:34.247Z,25.32
2023-04-26T06:12:34.322Z,25.29
2023-04-26T06:13:34.303Z,25.33
2023-04-26T06:14:34.329Z,25.28
2023-04-26T06:15:34.706Z,25.40
2023-04-26T06:16:34.414Z,25.30
2023-04-26T06:17:34.415Z,25.39
2023-04-26T06:18:34.423Z,25.40
2023-04-26T06:19:34.404Z,25.39
2023-04-26T06:20:34.482Z,25.50
2023-04-26T06:21:34.429Z,25.50
2023-04-26T06:22:34.586Z,25.49
2023-04-26T06:23:34.484Z,25.50
2023-04-26T06:24:34.471Z,25.47
2023-04-26T06:25:34.769Z,25.47
2023-04-26T06:26:34.492Z,25.50
2023-04-26T06:27:34.520Z,25.47
2023-04-26T06:28:34.504Z,25.49
2023-04-26T06:29:34.518Z,25.50
2023-04-26T06:30:34.735Z,25.47
2023-04-26T06:31:34.560Z,25.49
2023-04-26T06:32:34.557Z,25.40
2023-04-26T06:33:34.586Z,25.36
2023-04-26T06:34:34.524Z,25.44
2023-04-26T06:35:34.596Z,25.50
2023-04-26T06:36:34.555Z,25.56
2023-04-26T06:37:34.605Z,25.53
2023-04-26T06:38:34.655Z,25.51
2023-04-26T06:39:34.655Z,25.53
2023-04-26T06:40:34.728Z,25.49
2023-04-26T06:41:34.709Z,25.44
2023-04-26T06:42:34.788Z,25.41
2023-04-26T06:43:34.736Z,25.41
2023-04-26T06:44:34.777Z,25.43
2023-04-26T06:45:34.839Z,25.49
2023-04-26T06:46:34.967Z,25.51
2023-04-26T06:47:35.028Z,25.56
2023-04-26T06:48:34.950Z,25.60
2023-04-26T06:49:35.015Z,25.60
2023-04-26T06:50:35.266Z,25.66
2023-04-26T06:51:35.028Z,25.63
2023-04-26T06:52:35.042Z,25.64
2023-04-26T06:53:35.072Z,25.66
2023-04-26T06:54:39.922Z,25.64
2023-04-26T06:55:36.217Z,25.67
2023-04-26T06:56:36.149Z,25.66
2023-04-26T06:57:35.291Z,25.70
2023-04-26T06:58:35.065Z,25.71
2023-04-26T06:59:35.138Z,25.66
2023-04-26T07:00:35.143Z,25.73
2023-04-26T07:01:35.073Z,25.76
2023-04-26T07:02:35.146Z,25.71
2023-04-26T07:03:35.207Z,25.76
2023-04-26T07:04:35.269Z,25.80
2023-04-26T07:05:35.033Z,25.79
2023-04-26T07:06:35.005Z,25.83
2023-04-26T07:07:35.025Z,25.81
2023-04-26T07:08:35.008Z,25.83
2023-04-26T07:09:35.031Z,25.83
2023-04-26T07:10:35.070Z,25.85
2023-04-26T07:11:35.044Z,25.85
2023-04-26T07:12:35.029Z,25.87
2023-04-26T07:13:35.040Z,25.88
2023-04-26T07:14:37.029Z,25.81
2023-04-26T07:15:35.051Z,25.80
2023-04-26T07:16:35.076Z,25.76
2023-04-26T07:17:35.034Z,25.74
2023-04-26T07:18:35.021Z,25.84
2023-04-26T07:19:34.982Z,25.81
2023-04-26T07:20:35.009Z,25.81
2023-04-26T07:21:34.977Z,25.87
2023-04-26T07:22:35.009Z,25.84
2023-04-26T07:23:34.975Z,25.83
2023-04-26T07:24:34.969Z,25.88
2023-04-26T07:25:35.015Z,25.91
2023-04-26T07:26:34.952Z,25.95
2023-04-26T07:27:34.936Z,25.95
2023-04-26T07:28:34.954Z,25.94
2023-04-26T07:29:34.917Z,25.95
2023-04-26T07:30:34.929Z,25.92
2023-04-26T07:31:34.941Z,25.92
2023-04-26T07:32:35.080Z,25.85
2023-04-26T07:33:35.171Z,25.98
2023-04-26T07:34:34.932Z,25.95
2023-04-26T07:35:34.922Z,25.91
2023-04-26T07:36:34.891Z,25.90
2023-04-26T07:37:34.882Z,25.90
2023-04-26T07:38:34.890Z,25.91
2023-04-26T07:39:34.872Z,25.91
2023-04-26T07:40:34.866Z,25.85
2023-04-26T07:41:34.881Z,25.84
2023-04-26T07:42:34.826Z,25.81
2023-04-26T07:43:34.859Z,25.81
2023-04-26T07:44:35.791Z,25.90
2023-04-26T07:45:34.887Z,25.90
2023-04-26T07:46:34.918Z,25.95
2023-04-26T07:47:34.830Z,25.98
2023-04-26T07:48:34.838Z,25.94
2023-04-26T07:49:34.776Z,26.01
2023-04-26T07:50:34.793Z,25.94
2023-04-26T07:51:34.770Z,25.85
2023-04-26T07:52:34.780Z,25.84
2023-04-26T07:53:34.861Z,25.84
2023-04-26T07:54:34.832Z,25.84
2023-04-26T07:55:34.847Z,25.85
2023-04-26T07:56:34.755Z,25.87
2023-04-26T07:57:34.757Z,25.85
2023-04-26T07:58:34.766Z,25.85
2023-04-26T07:59:34.750Z,25.91
2023-04-26T08:00:34.733Z,25.98
2023-04-26T08:01:34.697Z,26.04
2023-04-26T08:02:44.549Z,25.97
2023-04-26T08:03:35.829Z,26.07
2023-04-26T08:04:34.969Z,26.11
2023-04-26T08:05:35.041Z,26.02
2023-04-26T08:06:34.686Z,26.02
2023-04-26T08:07:34.678Z,26.08
2023-04-26T08:08:34.684Z,26.09
2023-04-26T08:09:34.731Z,26.08
2023-04-26T08:10:34.768Z,26.09
2023-04-26T08:11:34.675Z,26.14
2023-04-26T08:12:34.692Z,26.14
2023-04-26T08:13:34.613Z,26.14
2023-04-26T08:14:34.633Z,26.18
2023-04-26T08:15:34.611Z,26.25
2023-04-26T08:16:34.639Z,26.18
2023-04-26T08:17:34.614Z,26.07
2023-04-26T08:18:34.624Z,26.08
2023-04-26T08:19:34.615Z,26.11
2023-04-26T08:20:34.575Z,26.17
2023-04-26T08:21:34.644Z,26.02
2023-04-26T08:22:34.575Z,25.97
2023-04-26T08:23:34.537Z,25.92
2023-04-26T08:24:34.547Z,25.87
2023-04-26T08:25:34.589Z,25.87
2023-04-26T08:26:34.518Z,25.81
2023-04-26T08:27:34.624Z,25.84
2023-04-26T08:28:34.554Z,25.87
2023-04-26T08:29:34.549Z,25.87
2023-04-26T08:30:35.319Z,25.84
2023-04-26T08:31:34.685Z,25.87
2023-04-26T08:32:34.675Z,25.85
2023-04-26T08:33:34.627Z,25.87
2023-04-26T08:34:34.667Z,25.84
2023-04-26T08:35:34.686Z,25.83
2023-04-26T08:36:34.744Z,25.85
2023-04-26T08:37:34.715Z,25.85
2023-04-26T08:38:34.746Z,25.84
2023-04-26T08:39:34.750Z,25.83
2023-04-26T08:40:35.257Z,25.83
2023-04-26T08:41:34.809Z,25.74
2023-04-26T08:42:36.370Z,25.80
2023-04-26T08:43:34.812Z,25.80
2023-04-26T08:44:34.802Z,25.87
2023-04-26T08:45:35.776Z,25.94
2023-04-26T08:46:34.815Z,26.01
2023-04-26T08:47:34.823Z,26.00
2023-04-26T08:48:34.779Z,26.09
2023-04-26T08:49:34.757Z,26.09
2023-04-26T08:50:34.795Z,26.12
2023-04-26T08:51:34.733Z,26.20
2023-04-26T08:52:34.733Z,26.21
2023-04-26T08:53:34.734Z,26.24
2023-04-26T08:54:34.727Z,26.27
2023-04-26T08:55:34.730Z,26.25
2023-04-26T08:56:34.710Z,26.31
2023-04-26T08:57:34.711Z,26.31
2023-04-26T08:58:34.710Z,26.32
2023-04-26T08:59:34.704Z,26.34
2023-04-26T09:00:34.766Z,26.34
2023-04-26T09:01:34.724Z,26.34
2023-04-26T09:02:34.887Z,26.35
2023-04-26T09:03:34.859Z,26.34
2023-04-26T09:05:34.780Z,26.18
2023-04-26T09:06:34.707Z,26.12
2023-04-26T09:07:34.624Z,26.12
2023-04-26T09:08:34.626Z,25.60
2023-04-26T09:09:34.647Z,25.56
2023-04-26T09:10:35.274Z,25.54
2023-04-26T09:11:34.602Z,25.47
2023-04-26T09:12:34.597Z,25.57
2023-04-26T09:13:34.620Z,25.59
2023-04-26T09:14:34.589Z,25.20
2023-04-26T09:15:34.731Z,25.37
2023-04-26T09:16:35.377Z,25.05
2023-04-26T09:17:34.671Z,25.08
2023-04-26T09:18:34.576Z,25.08
2023-04-26T09:19:34.643Z,25.13
2023-04-26T09:20:34.577Z,25.26
2023-04-26T09:21:34.545Z,25.23
2023-04-26T09:22:34.531Z,25.25
2023-04-26T09:23:34.545Z,24.90
2023-04-26T09:24:34.506Z,24.86
2023-04-26T09:25:34.577Z,24.93
2023-04-26T09:26:34.880Z,24.96
2023-04-26T09:27:34.514Z,25.05
2023-04-26T09:28:34.490Z,25.15
2023-04-26T09:29:34.454Z,24.92
2023-04-26T09:30:34.514Z,24.90
2023-04-26T09:31:34.546Z,25.05
2023-04-26T09:32:34.624Z,25.05
2023-04-26T09:33:34.623Z,25.10
2023-04-26T09:34:34.595Z,25.08
2023-04-26T09:35:34.723Z,25.05
2023-04-26T09:36:35.298Z,25.09
2023-04-26T09:37:34.769Z,25.03
2023-04-26T09:38:34.824Z,24.99
2023-04-26T09:39:34.807Z,25.03
2023-04-26T09:40:35.326Z,25.06
2023-04-26T09:41:34.921Z,25.08
2023-04-26T09:42:34.982Z,25.10
2023-04-26T09:43:35.910Z,25.16
2023-04-26T09:44:34.994Z,25.20
2023-04-26T09:45:35.062Z,25.25
2023-04-26T09:46:35.121Z,25.20
2023-04-26T09:47:35.133Z,25.26
2023-04-26T09:48:35.171Z,25.15
2023-04-26T09:49:35.202Z,25.13
2023-04-26T09:50:35.317Z,25.15
2023-04-26T09:51:35.244Z,25.08
2023-04-26T09:52:35.276Z,25.12
2023-04-26T09:53:35.290Z,25.05
2023-04-26T09:54:35.399Z,24.75
2023-04-26T09:55:36.025Z,24.69
2023-04-26T09:56:35.394Z,24.76
2023-04-26T09:57:35.418Z,24.74
2023-04-26T09:58:35.492Z,24.81
2023-04-26T09:59:35.477Z,25.00
2023-04-26T10:00:35.836Z,24.98
2023-04-26T10:01:35.665Z,24.98
2023-04-26T10:02:35.629Z,25.03
2023-04-26T10:03:35.688Z,25.08
2023-04-26T10:04:35.788Z,25.16
2023-04-26T10:05:35.833Z,25.13
2023-04-26T10:06:35.712Z,25.10
2023-04-26T10:07:36.296Z,24.98
2023-04-26T10:08:35.799Z,24.81
2023-04-26T10:09:35.791Z,24.81
2023-04-26T10:10:35.897Z,24.86
2023-04-26T10:11:35.956Z,24.86
2023-04-26T10:12:35.904Z,24.99
2023-04-26T10:13:35.922Z,25.12
2023-04-26T10:14:36.063Z,25.18
2023-04-26T10:15:35.975Z,25.13
2023-04-26T10:16:36.014Z,25.13
2023-04-26T10:17:36.035Z,25.22
2023-04-26T10:18:36.054Z,25.23
2023-04-26T10:19:36.087Z,25.34
2023-04-26T10:20:36.101Z,25.19
2023-04-26T10:21:36.106Z,25.10
2023-04-26T10:22:36.205Z,25.15
2023-04-26T10:23:36.131Z,25.28
2023-04-26T10:24:36.138Z,25.39
2023-04-26T10:25:36.175Z,25.47
2023-04-26T10:26:36.210Z,25.37
2023-04-26T10:27:36.248Z,25.53
2023-04-26T10:28:36.265Z,25.59
2023-04-26T10:29:36.282Z,25.63
2023-04-26T10:30:36.312Z,25.71
2023-04-26T10:31:37.335Z,25.79
2023-04-26T10:32:36.438Z,25.84
2023-04-26T10:33:36.403Z,25.87
2023-04-26T10:34:36.411Z,25.90
2023-04-26T10:35:36.461Z,25.95
2023-04-26T10:36:38.304Z,26.00
2023-04-26T10:37:36.492Z,26.02
2023-04-26T10:38:36.451Z,26.07
2023-04-26T10:39:36.470Z,26.09
2023-04-26T10:40:36.472Z,26.12
2023-04-26T10:41:36.826Z,26.14
2023-04-26T10:42:36.534Z,26.18
2023-04-26T10:43:36.499Z,26.21
2023-04-26T10:44:36.568Z,26.24
2023-04-26T10:45:36.519Z,26.24
2023-04-26T10:46:36.843Z,26.25
2023-04-26T10:47:36.655Z,26.28
2023-04-26T10:48:36.506Z,26.30
2023-04-26T10:49:36.827Z,26.30
2023-04-26T10:50:36.528Z,26.31
2023-04-26T10:51:36.500Z,26.28
2023-04-26T10:52:36.545Z,26.34
2023-04-26T10:53:36.512Z,26.35
2023-04-26T10:54:36.497Z,26.36
2023-04-26T10:55:36.526Z,26.35
2023-04-26T10:56:36.529Z,26.36
2023-04-26T10:57:36.536Z,26.39
2023-04-26T10:58:36.536Z,26.41
2023-04-26T10:59:47.167Z,26.41
2023-04-26T11:00:37.530Z,26.41
2023-04-26T11:01:36.558Z,26.42
2023-04-26T11:02:36.532Z,26.45
2023-04-26T11:03:36.779Z,26.44
2023-04-26T11:04:36.579Z,26.45
2023-04-26T11:05:36.611Z,26.45
2023-04-26T11:06:36.517Z,26.45
2023-04-26T11:07:36.489Z,26.46
2023-04-26T11:08:36.516Z,26.46
2023-04-26T11:09:36.461Z,26.46
2023-04-26T11:10:36.756Z,26.49
2023-04-26T11:11:36.447Z,26.49
2023-04-26T11:12:36.422Z,26.49
2023-04-26T11:13:36.442Z,26.51
2023-04-26T11:14:36.407Z,26.52
2023-04-26T11:15:36.464Z,26.51
2023-04-26T11:16:36.481Z,26.54
2023-04-26T11:17:36.459Z,26.52
2023-04-26T11:18:36.391Z,26.51
2023-04-26T11:19:36.409Z,26.54
2023-04-26T11:20:36.399Z,26.54
2023-04-26T11:21:36.925Z,26.55
2023-04-26T11:22:36.353Z,26.55
2023-04-26T11:23:36.370Z,26.58
2023-04-26T11:24:36.370Z,26.58
2023-04-26T11:25:36.431Z,26.59
2023-04-26T11:26:36.330Z,26.59
2023-04-26T11:27:36.321Z,26.58
2023-04-26T11:28:36.805Z,26.59
2023-04-26T11:29:36.358Z,26.58
2023-04-26T11:30:36.352Z,26.59
2023-04-26T11:31:36.435Z,26.59
2023-04-26T11:32:36.419Z,26.59
2023-04-26T11:33:36.362Z,26.59
2023-04-26T11:34:36.388Z,26.58
2023-04-26T11:35:36.420Z,26.63
2023-04-26T11:36:37.326Z,26.60
2023-04-26T11:37:36.479Z,26.59
2023-04-26T11:38:36.492Z,26.63
2023-04-26T11:39:36.525Z,26.60
2023-04-26T11:40:36.589Z,26.60
2023-04-26T11:41:36.828Z,26.60
2023-04-26T11:42:36.630Z,26.63
2023-04-26T11:43:36.806Z,26.59
2023-04-26T11:44:36.668Z,26.62
2023-04-26T11:45:36.733Z,26.60
2023-04-26T11:46:36.827Z,26.59
2023-04-26T11:47:36.819Z,26.65
2023-04-26T11:48:36.885Z,26.63
2023-04-26T11:49:36.999Z,26.59
2023-04-26T11:50:36.903Z,26.63
2023-04-26T11:51:36.942Z,26.65
2023-04-26T11:52:36.965Z,26.62
2023-04-26T11:53:37.030Z,26.62
2023-04-26T11:54:37.102Z,26.62
2023-04-26T11:55:37.135Z,26.62
2023-04-26T11:56:37.136Z,26.63
2023-04-26T11:57:37.173Z,26.60
2023-04-26T11:58:37.218Z,26.62
2023-04-26T11:59:37.248Z,26.62
2023-04-26T12:00:37.314Z,26.63
2023-04-26T12:01:37.465Z,26.62
2023-04-26T12:02:37.507Z,26.60
2023-04-26T12:03:37.736Z,26.60
2023-04-26T12:04:37.587Z,26.60
2023-04-26T12:05:37.597Z,26.59
2023-04-26T12:06:37.594Z,26.59
2023-04-26T12:07:37.658Z,26.56
2023-04-26T12:08:37.726Z,26.59
2023-04-26T12:09:37.751Z,26.59
2023-04-26T12:10:37.822Z,26.56
2023-04-26T12:11:37.902Z,26.56
2023-04-26T12:12:37.917Z,26.56
2023-04-26T12:13:37.952Z,26.55
2023-04-26T12:14:38.034Z,26.55
2023-04-26T12:15:38.094Z,26.58
2023-04-26T12:16:38.214Z,26.55
2023-04-26T12:17:38.248Z,26.56
2023-04-26T12:18:38.230Z,26.56
2023-04-26T12:19:38.288Z,26.54
2023-04-26T12:20:38.371Z,26.56
2023-04-26T12:21:38.395Z,26.55
2023-04-26T12:22:38.516Z,26.58
2023-04-26T12:23:38.529Z,26.56
2023-04-26T12:24:38.651Z,26.55
2023-04-26T12:25:38.769Z,26.56
2023-04-26T12:26:38.680Z,26.56
2023-04-26T12:27:38.748Z,26.58
2023-04-26T12:28:38.761Z,26.56
2023-04-26T12:29:38.831Z,26.55
2023-04-26T12:30:38.885Z,26.55
2023-04-26T12:31:38.952Z,26.55
2023-04-26T12:32:38.977Z,26.55
2023-04-26T12:33:39.089Z,26.56
2023-04-26T12:34:39.090Z,26.58
2023-04-26T12:35:39.161Z,26.55
2023-04-26T12:36:39.212Z,26.55
2023-04-26T12:37:39.300Z,26.54
2023-04-26T12:38:39.330Z,26.55
2023-04-26T12:39:39.406Z,26.55
2023-04-26T12:40:39.429Z,26.56
2023-04-26T12:41:39.532Z,26.56
2023-04-26T12:42:39.527Z,26.56
2023-04-26T12:43:39.562Z,26.54
2023-04-26T12:44:39.639Z,26.52
2023-04-26T12:45:39.755Z,26.52
2023-04-26T12:46:39.737Z,26.55
2023-04-26T12:47:39.781Z,26.54
2023-04-26T12:48:39.799Z,26.54
2023-04-26T12:49:39.829Z,26.52
2023-04-26T12:50:39.881Z,26.52
2023-04-26T12:51:40.009Z,26.51
2023-04-26T12:52:39.999Z,26.48
2023-04-26T12:53:40.074Z,26.49